sensor_id;sensor_type;location;lat;lon;timestamp;P1;durP1;ratioP1;P2;durP2;ratioP2
35907;SDS011;22003;50.320;8.054;2022-10-31T05:02:05;20.30;;;7.95;;
35907;SDS011;22003;50.320;8.054;2022-10-31T05:04:30;17.02;;;7.68;;
35907;SDS011;22003;50.320;8.054;2022-10-31T05:06:55;10.63;;;6.23;;
35907;SDS011;22003;50.320;8.054;2022-10-31T05:09:21;16.42;;;7.35;;
35907;SDS011;22003;50.320;8.054;2022-10-31T05:11:46;14.52;;;7.50;;
35907;SDS011;22003;50.320;8.054;2022-10-31T05:14:11;13.77;;;7.53;;
35907;SDS011;22003;50.320;8.054;2022-10-31T05:16:36;15.98;;;7.30;;
35907;SDS011;22003;50.320;8.054;2022-10-31T05:19:01;15.93;;;7.60;;
35907;SDS011;22003;50.320;8.054;2022-10-31T05:21:26;13.23;;;7.43;;
35907;SDS011;22003;50.320;8.054;2022-10-31T05:23:51;22.95;;;8.05;;
35907;SDS011;22003;50.320;8.054;2022-10-31T05:26:17;18.13;;;6.65;;
35907;SDS011;22003;50.320;8.054;2022-10-31T05:28:42;16.10;;;7.32;;
35907;SDS011;22003;50.320;8.054;2022-10-31T05:31:07;12.10;;;6.75;;
35907;SDS011;22003;50.320;8.054;2022-10-31T05:33:32;16.55;;;6.90;;
35907;SDS011;22003;50.320;8.054;2022-10-31T05:35:58;11.82;;;6.75;;
35907;SDS011;22003;50.320;8.054;2022-10-31T05:38:23;15.93;;;7.45;;
35907;SDS011;22003;50.320;8.054;2022-10-31T05:40:48;22.58;;;6.97;;
35907;SDS011;22003;50.320;8.054;2022-10-31T05:43:13;20.83;;;7.43;;
35907;SDS011;22003;50.320;8.054;2022-10-31T05:45:38;13.27;;;6.70;;
35907;SDS011;22003;50.320;8.054;2022-10-31T05:48:03;15.50;;;7.13;;
35907;SDS011;22003;50.320;8.054;2022-10-31T05:50:29;22.02;;;7.93;;
35907;SDS011;22003;50.320;8.054;2022-10-31T05:52:56;25.27;;;9.02;;
35907;SDS011;22003;50.320;8.054;2022-10-31T05:55:21;27.73;;;12.10;;
35907;SDS011;22003;50.320;8.054;2022-10-31T05:57:46;35.85;;;11.50;;
35907;SDS011;22003;50.320;8.054;2022-10-31T06:00:12;28.77;;;12.45;;
35907;SDS011;22003;50.320;8.054;2022-10-31T06:02:37;23.70;;;10.25;;
35907;SDS011;22003;50.320;8.054;2022-10-31T06:05:02;27.88;;;10.40;;
35907;SDS011;22003;50.320;8.054;2022-10-31T06:07:31;39.75;;;10.45;;
35907;SDS011;22003;50.320;8.054;2022-10-31T06:09:56;43.33;;;10.35;;
35907;SDS011;22003;50.320;8.054;2022-10-31T06:12:21;58.70;;;11.27;;
35907;SDS011;22003;50.320;8.054;2022-10-31T06:14:46;22.73;;;8.75;;
35907;SDS011;22003;50.320;8.054;2022-10-31T06:17:11;42.17;;;9.38;;
35907;SDS011;22003;50.320;8.054;2022-10-31T06:19:37;30.30;;;8.13;;
35907;SDS011;22003;50.320;8.054;2022-10-31T06:22:02;32.20;;;8.95;;
35907;SDS011;22003;50.320;8.054;2022-10-31T06:24:27;33.78;;;8.68;;
35907;SDS011;22003;50.320;8.054;2022-10-31T06:26:52;17.73;;;7.87;;
35907;SDS011;22003;50.320;8.054;2022-10-31T06:29:17;19.85;;;8.25;;
35907;SDS011;22003;50.320;8.054;2022-10-31T06:31:42;27.02;;;9.20;;
35907;SDS011;22003;50.320;8.054;2022-10-31T06:34:07;17.98;;;8.57;;
35907;SDS011;22003;50.320;8.054;2022-10-31T06:36:33;12.90;;;7.63;;
35907;SDS011;22003;50.320;8.054;2022-10-31T06:38:58;14.55;;;7.80;;
35907;SDS011;22003;50.320;8.054;2022-10-31T06:41:23;14.57;;;7.07;;
35907;SDS011;22003;50.320;8.054;2022-10-31T06:43:48;22.40;;;6.83;;
35907;SDS011;22003;50.320;8.054;2022-10-31T06:46:13;17.25;;;6.70;;
35907;SDS011;22003;50.320;8.054;2022-10-31T06:48:40;24.15;;;6.80;;
35907;SDS011;22003;50.320;8.054;2022-10-31T06:51:05;13.68;;;6.05;;
35907;SDS011;22003;50.320;8.054;2022-10-31T06:53:30;15.70;;;6.85;;
35907;SDS011;22003;50.320;8.054;2022-10-31T06:55:55;46.93;;;7.40;;
35907;SDS011;22003;50.320;8.054;2022-10-31T06:58:20;81.80;;;10.75;;
35907;SDS011;22003;50.320;8.054;2022-10-31T07:00:46;131.93;;;13.07;;
35907;SDS011;22003;50.320;8.054;2022-10-31T07:03:12;206.02;;;20.42;;
35907;SDS011;22003;50.320;8.054;2022-10-31T07:05:37;128.55;;;13.88;;
35907;SDS011;22003;50.320;8.054;2022-10-31T07:08:03;180.05;;;17.90;;
35907;SDS011;22003;50.320;8.054;2022-10-31T07:10:30;139.02;;;14.65;;
35907;SDS011;22003;50.320;8.054;2022-10-31T07:12:56;136.88;;;14.07;;
35907;SDS011;22003;50.320;8.054;2022-10-31T07:15:21;137.65;;;14.05;;
35907;SDS011;22003;50.320;8.054;2022-10-31T07:17:47;53.25;;;7.97;;
35907;SDS011;22003;50.320;8.054;2022-10-31T07:20:12;77.75;;;9.57;;
35907;SDS011;22003;50.320;8.054;2022-10-31T07:22:37;40.45;;;6.95;;
35907;SDS011;22003;50.320;8.054;2022-10-31T07:25:02;32.97;;;6.18;;
35907;SDS011;22003;50.320;8.054;2022-10-31T07:27:28;22.77;;;6.18;;
35907;SDS011;22003;50.320;8.054;2022-10-31T07:29:53;31.33;;;6.10;;
35907;SDS011;22003;50.320;8.054;2022-10-31T07:32:18;11.55;;;5.43;;
35907;SDS011;22003;50.320;8.054;2022-10-31T07:34:43;7.45;;;4.90;;
35907;SDS011;22003;50.320;8.054;2022-10-31T07:37:08;11.98;;;4.60;;
35907;SDS011;22003;50.320;8.054;2022-10-31T07:39:33;11.18;;;4.97;;
35907;SDS011;22003;50.320;8.054;2022-10-31T07:41:58;9.02;;;4.38;;
35907;SDS011;22003;50.320;8.054;2022-10-31T07:44:24;9.10;;;5.10;;
35907;SDS011;22003;50.320;8.054;2022-10-31T07:46:49;8.93;;;4.93;;
35907;SDS011;22003;50.320;8.054;2022-10-31T07:49:14;6.25;;;5.22;;
35907;SDS011;22003;50.320;8.054;2022-10-31T07:51:39;6.13;;;5.03;;
35907;SDS011;22003;50.320;8.054;2022-10-31T07:54:04;7.60;;;4.82;;
35907;SDS011;22003;50.320;8.054;2022-10-31T07:56:29;5.45;;;4.47;;
35907;SDS011;22003;50.320;8.054;2022-10-31T07:58:54;5.88;;;4.50;;
35907;SDS011;22003;50.320;8.054;2022-10-31T08:01:20;5.13;;;4.40;;
35907;SDS011;22003;50.320;8.054;2022-10-31T08:03:45;8.50;;;4.78;;
35907;SDS011;22003;50.320;8.054;2022-10-31T08:06:10;6.90;;;4.60;;
35907;SDS011;22003;50.320;8.054;2022-10-31T08:08:35;7.18;;;4.80;;
35907;SDS011;22003;50.320;8.054;2022-10-31T08:11:00;8.07;;;5.00;;
35907;SDS011;22003;50.320;8.054;2022-10-31T08:13:25;8.07;;;4.75;;
35907;SDS011;22003;50.320;8.054;2022-10-31T08:15:50;8.30;;;4.88;;
35907;SDS011;22003;50.320;8.054;2022-10-31T08:18:17;6.72;;;4.25;;
35907;SDS011;22003;50.320;8.054;2022-10-31T08:20:42;16.58;;;5.32;;
35907;SDS011;22003;50.320;8.054;2022-10-31T08:23:08;7.68;;;4.82;;
35907;SDS011;22003;50.320;8.054;2022-10-31T08:25:34;6.28;;;4.68;;
35907;SDS011;22003;50.320;8.054;2022-10-31T08:27:59;9.60;;;5.43;;
35907;SDS011;22003;50.320;8.054;2022-10-31T08:30:25;10.55;;;6.07;;
35907;SDS011;22003;50.320;8.054;2022-10-31T08:32:58;15.00;;;7.07;;
35907;SDS011;22003;50.320;8.054;2022-10-31T08:35:23;10.90;;;7.45;;
35907;SDS011;22003;50.320;8.054;2022-10-31T08:37:55;16.50;;;7.10;;
35907;SDS011;22003;50.320;8.054;2022-10-31T08:40:21;9.52;;;6.95;;
35907;SDS011;22003;50.320;8.054;2022-10-31T08:42:46;9.80;;;6.63;;
35907;SDS011;22003;50.320;8.054;2022-10-31T08:45:11;9.73;;;6.60;;
35907;SDS011;22003;50.320;8.054;2022-10-31T08:47:36;10.10;;;7.00;;
35907;SDS011;22003;50.320;8.054;2022-10-31T08:50:02;13.95;;;6.68;;
35907;SDS011;22003;50.320;8.054;2022-10-31T08:52:27;12.90;;;6.45;;
35907;SDS011;22003;50.320;8.054;2022-10-31T08:54:52;12.68;;;6.93;;
35907;SDS011;22003;50.320;8.054;2022-10-31T08:57:17;14.40;;;8.17;;
35907;SDS011;22003;50.320;8.054;2022-10-31T08:59:42;8.93;;;7.00;;
35907;SDS011;22003;50.320;8.054;2022-10-31T09:02:07;10.90;;;6.82;;
35907;SDS011;22003;50.320;8.054;2022-10-31T09:04:33;11.33;;;5.83;;
35907;SDS011;22003;50.320;8.054;2022-10-31T09:06:58;10.13;;;6.05;;
35907;SDS011;22003;50.320;8.054;2022-10-31T09:09:23;11.90;;;6.60;;
35907;SDS011;22003;50.320;8.054;2022-10-31T09:11:48;9.85;;;6.20;;
35907;SDS011;22003;50.320;8.054;2022-10-31T09:14:13;9.93;;;6.30;;
35907;SDS011;22003;50.320;8.054;2022-10-31T09:16:38;11.32;;;6.50;;
35907;SDS011;22003;50.320;8.054;2022-10-31T09:19:03;9.18;;;6.47;;
35907;SDS011;22003;50.320;8.054;2022-10-31T09:21:29;7.83;;;6.23;;
35907;SDS011;22003;50.320;8.054;2022-10-31T09:23:54;9.07;;;6.45;;
35907;SDS011;22003;50.320;8.054;2022-10-31T09:26:19;12.93;;;7.27;;
35907;SDS011;22003;50.320;8.054;2022-10-31T09:28:44;13.48;;;8.35;;
35907;SDS011;22003;50.320;8.054;2022-10-31T09:31:09;15.48;;;10.40;;
35907;SDS011;22003;50.320;8.054;2022-10-31T09:33:34;15.27;;;9.23;;
35907;SDS011;22003;50.320;8.054;2022-10-31T09:36:00;29.38;;;14.50;;
35907;SDS011;22003;50.320;8.054;2022-10-31T09:38:25;28.40;;;12.68;;
35907;SDS011;22003;50.320;8.054;2022-10-31T09:48:46;11.07;;;7.90;;
35907;SDS011;22003;50.320;8.054;2022-10-31T09:51:13;11.15;;;8.80;;
35907;SDS011;22003;50.320;8.054;2022-10-31T09:53:42;10.70;;;8.43;;
35907;SDS011;22003;50.320;8.054;2022-10-31T09:56:10;12.75;;;8.30;;
35907;SDS011;22003;50.320;8.054;2022-10-31T10:01:02;14.57;;;9.02;;
35907;SDS011;22003;50.320;8.054;2022-10-31T10:06:23;13.07;;;8.43;;
35907;SDS011;22003;50.320;8.054;2022-10-31T10:08:49;12.73;;;9.00;;
35907;SDS011;22003;50.320;8.054;2022-10-31T10:11:24;14.00;;;8.77;;
35907;SDS011;22003;50.320;8.054;2022-10-31T10:16:43;14.10;;;8.00;;
35907;SDS011;22003;50.320;8.054;2022-10-31T10:21:53;14.75;;;7.07;;
35907;SDS011;22003;50.320;8.054;2022-10-31T10:26:58;11.32;;;6.93;;
35907;SDS011;22003;50.320;8.054;2022-10-31T10:29:29;11.38;;;7.22;;
35907;SDS011;22003;50.320;8.054;2022-10-31T10:31:57;14.85;;;7.40;;
35907;SDS011;22003;50.320;8.054;2022-10-31T10:36:50;12.40;;;7.13;;
35907;SDS011;22003;50.320;8.054;2022-10-31T10:39:18;15.80;;;8.20;;
35907;SDS011;22003;50.320;8.054;2022-10-31T10:44:10;12.98;;;8.00;;
35907;SDS011;22003;50.320;8.054;2022-10-31T10:46:43;12.52;;;6.63;;
35907;SDS011;22003;50.320;8.054;2022-10-31T10:59:43;11.68;;;6.57;;
35907;SDS011;22003;50.320;8.054;2022-10-31T11:02:18;14.73;;;6.82;;
35907;SDS011;22003;50.320;8.054;2022-10-31T11:04:43;11.15;;;6.90;;
35907;SDS011;22003;50.320;8.054;2022-10-31T11:07:10;11.77;;;6.70;;
35907;SDS011;22003;50.320;8.054;2022-10-31T11:09:36;10.90;;;6.90;;
35907;SDS011;22003;50.320;8.054;2022-10-31T11:12:15;15.75;;;7.60;;
35907;SDS011;22003;50.320;8.054;2022-10-31T11:14:46;19.95;;;8.00;;
35907;SDS011;22003;50.320;8.054;2022-10-31T11:17:25;14.10;;;7.00;;
35907;SDS011;22003;50.320;8.054;2022-10-31T11:20:01;22.95;;;7.90;;
35907;SDS011;22003;50.320;8.054;2022-10-31T11:22:26;14.63;;;6.95;;
35907;SDS011;22003;50.320;8.054;2022-10-31T11:24:51;19.58;;;7.65;;
35907;SDS011;22003;50.320;8.054;2022-10-31T11:27:21;20.50;;;7.97;;
35907;SDS011;22003;50.320;8.054;2022-10-31T11:29:46;19.38;;;7.70;;
35907;SDS011;22003;50.320;8.054;2022-10-31T11:32:19;22.40;;;7.68;;
35907;SDS011;22003;50.320;8.054;2022-10-31T11:34:44;14.55;;;7.25;;
35907;SDS011;22003;50.320;8.054;2022-10-31T11:37:19;18.98;;;7.38;;
35907;SDS011;22003;50.320;8.054;2022-10-31T11:39:45;15.10;;;7.10;;
35907;SDS011;22003;50.320;8.054;2022-10-31T11:42:14;17.85;;;6.78;;
35907;SDS011;22003;50.320;8.054;2022-10-31T11:44:41;14.18;;;6.75;;
35907;SDS011;22003;50.320;8.054;2022-10-31T11:47:11;17.58;;;7.30;;
35907;SDS011;22003;50.320;8.054;2022-10-31T11:49:38;15.93;;;7.68;;
35907;SDS011;22003;50.320;8.054;2022-10-31T11:52:05;19.37;;;8.87;;
35907;SDS011;22003;50.320;8.054;2022-10-31T11:54:47;21.50;;;8.77;;
35907;SDS011;22003;50.320;8.054;2022-10-31T11:57:23;16.77;;;9.05;;
35907;SDS011;22003;50.320;8.054;2022-10-31T11:59:53;18.40;;;8.48;;
35907;SDS011;22003;50.320;8.054;2022-10-31T12:02:19;13.45;;;8.43;;
35907;SDS011;22003;50.320;8.054;2022-10-31T12:04:46;14.40;;;8.48;;
35907;SDS011;22003;50.320;8.054;2022-10-31T12:07:13;14.93;;;7.72;;
35907;SDS011;22003;50.320;8.054;2022-10-31T12:09:38;18.02;;;8.60;;
35907;SDS011;22003;50.320;8.054;2022-10-31T12:14:59;12.05;;;7.28;;
35907;SDS011;22003;50.320;8.054;2022-10-31T12:17:31;16.50;;;6.93;;
35907;SDS011;22003;50.320;8.054;2022-10-31T12:22:40;13.35;;;7.75;;
35907;SDS011;22003;50.320;8.054;2022-10-31T12:30:29;14.35;;;7.72;;
35907;SDS011;22003;50.320;8.054;2022-10-31T12:41:05;15.55;;;7.60;;
35907;SDS011;22003;50.320;8.054;2022-10-31T12:43:49;21.45;;;7.90;;
35907;SDS011;22003;50.320;8.054;2022-10-31T12:51:39;16.75;;;8.43;;
35907;SDS011;22003;50.320;8.054;2022-10-31T13:01:59;13.52;;;7.40;;
35907;SDS011;22003;50.320;8.054;2022-10-31T13:04:35;13.30;;;7.88;;
35907;SDS011;22003;50.320;8.054;2022-10-31T13:07:03;19.33;;;8.35;;
35907;SDS011;22003;50.320;8.054;2022-10-31T13:09:48;15.38;;;7.20;;
35907;SDS011;22003;50.320;8.054;2022-10-31T13:12:16;14.25;;;7.57;;
35907;SDS011;22003;50.320;8.054;2022-10-31T13:14:44;19.73;;;7.55;;
35907;SDS011;22003;50.320;8.054;2022-10-31T13:17:14;19.17;;;8.48;;
35907;SDS011;22003;50.320;8.054;2022-10-31T13:19:43;17.00;;;7.78;;
35907;SDS011;22003;50.320;8.054;2022-10-31T13:22:22;14.00;;;7.68;;
35907;SDS011;22003;50.320;8.054;2022-10-31T13:30:20;15.65;;;8.18;;
35907;SDS011;22003;50.320;8.054;2022-10-31T13:32:50;15.57;;;8.02;;
35907;SDS011;22003;50.320;8.054;2022-10-31T13:35:23;11.48;;;7.50;;
35907;SDS011;22003;50.320;8.054;2022-10-31T13:37:57;14.98;;;8.35;;
35907;SDS011;22003;50.320;8.054;2022-10-31T13:40:34;16.42;;;8.90;;
35907;SDS011;22003;50.320;8.054;2022-10-31T13:43:22;13.55;;;8.18;;
35907;SDS011;22003;50.320;8.054;2022-10-31T13:45:49;18.50;;;9.02;;
35907;SDS011;22003;50.320;8.054;2022-10-31T13:50:40;14.10;;;8.00;;
35907;SDS011;22003;50.320;8.054;2022-10-31T13:53:14;14.07;;;8.32;;
35907;SDS011;22003;50.320;8.054;2022-10-31T13:55:44;16.15;;;9.88;;
35907;SDS011;22003;50.320;8.054;2022-10-31T13:58:24;16.85;;;8.57;;
35907;SDS011;22003;50.320;8.054;2022-10-31T14:03:35;14.30;;;8.77;;
35907;SDS011;22003;50.320;8.054;2022-10-31T14:06:00;15.77;;;8.77;;
35907;SDS011;22003;50.320;8.054;2022-10-31T14:08:25;23.65;;;9.80;;
35907;SDS011;22003;50.320;8.054;2022-10-31T14:10:52;15.30;;;9.48;;
35907;SDS011;22003;50.320;8.054;2022-10-31T14:13:32;16.13;;;8.55;;
35907;SDS011;22003;50.320;8.054;2022-10-31T14:16:00;15.18;;;9.20;;
35907;SDS011;22003;50.320;8.054;2022-10-31T14:18:29;16.20;;;8.82;;
35907;SDS011;22003;50.320;8.054;2022-10-31T14:20:55;17.83;;;9.63;;
35907;SDS011;22003;50.320;8.054;2022-10-31T14:26:05;17.77;;;9.13;;
35907;SDS011;22003;50.320;8.054;2022-10-31T14:28:31;19.80;;;9.38;;
35907;SDS011;22003;50.320;8.054;2022-10-31T14:30:57;17.85;;;8.32;;
35907;SDS011;22003;50.320;8.054;2022-10-31T14:33:24;19.50;;;9.70;;
35907;SDS011;22003;50.320;8.054;2022-10-31T14:36:15;17.73;;;9.60;;
35907;SDS011;22003;50.320;8.054;2022-10-31T14:41:25;19.42;;;8.77;;
35907;SDS011;22003;50.320;8.054;2022-10-31T14:44:04;16.02;;;8.15;;
35907;SDS011;22003;50.320;8.054;2022-10-31T14:49:26;14.82;;;9.20;;
35907;SDS011;22003;50.320;8.054;2022-10-31T14:51:55;17.95;;;9.80;;
35907;SDS011;22003;50.320;8.054;2022-10-31T14:54:30;18.13;;;10.23;;
35907;SDS011;22003;50.320;8.054;2022-10-31T14:56:59;19.25;;;9.90;;
35907;SDS011;22003;50.320;8.054;2022-10-31T14:59:28;19.73;;;9.95;;
35907;SDS011;22003;50.320;8.054;2022-10-31T15:01:56;19.05;;;11.05;;
35907;SDS011;22003;50.320;8.054;2022-10-31T15:04:22;15.57;;;9.63;;
35907;SDS011;22003;50.320;8.054;2022-10-31T15:07:10;18.35;;;9.43;;
35907;SDS011;22003;50.320;8.054;2022-10-31T15:09:36;18.05;;;9.45;;
35907;SDS011;22003;50.320;8.054;2022-10-31T15:12:22;16.05;;;9.77;;
35907;SDS011;22003;50.320;8.054;2022-10-31T15:14:47;17.40;;;10.52;;
35907;SDS011;22003;50.320;8.054;2022-10-31T15:17:13;16.38;;;9.68;;
35907;SDS011;22003;50.320;8.054;2022-10-31T15:19:38;17.63;;;9.23;;
35907;SDS011;22003;50.320;8.054;2022-10-31T15:22:04;20.13;;;10.05;;
35907;SDS011;22003;50.320;8.054;2022-10-31T15:24:38;23.47;;;11.80;;
35907;SDS011;22003;50.320;8.054;2022-10-31T15:27:03;17.98;;;9.60;;
35907;SDS011;22003;50.320;8.054;2022-10-31T15:29:29;18.38;;;9.90;;
35907;SDS011;22003;50.320;8.054;2022-10-31T15:31:58;19.27;;;8.90;;
35907;SDS011;22003;50.320;8.054;2022-10-31T15:34:32;21.95;;;10.57;;
35907;SDS011;22003;50.320;8.054;2022-10-31T15:37:00;20.65;;;14.35;;
35907;SDS011;22003;50.320;8.054;2022-10-31T15:39:26;33.08;;;18.00;;
35907;SDS011;22003;50.320;8.054;2022-10-31T15:41:52;34.10;;;16.52;;
35907;SDS011;22003;50.320;8.054;2022-10-31T15:44:30;21.98;;;11.00;;
35907;SDS011;22003;50.320;8.054;2022-10-31T15:49:26;23.15;;;10.07;;
35907;SDS011;22003;50.320;8.054;2022-10-31T15:51:52;20.65;;;10.13;;
35907;SDS011;22003;50.320;8.054;2022-10-31T15:54:17;23.77;;;10.63;;
35907;SDS011;22003;50.320;8.054;2022-10-31T15:56:43;24.00;;;11.75;;
35907;SDS011;22003;50.320;8.054;2022-10-31T15:59:11;23.08;;;10.50;;
35907;SDS011;22003;50.320;8.054;2022-10-31T16:01:58;21.92;;;12.40;;
35907;SDS011;22003;50.320;8.054;2022-10-31T16:04:24;24.33;;;13.82;;
35907;SDS011;22003;50.320;8.054;2022-10-31T16:06:57;26.52;;;12.45;;
35907;SDS011;22003;50.320;8.054;2022-10-31T16:09:23;36.95;;;13.23;;
35907;SDS011;22003;50.320;8.054;2022-10-31T16:11:49;17.40;;;11.70;;
35907;SDS011;22003;50.320;8.054;2022-10-31T16:14:15;22.73;;;11.60;;
35907;SDS011;22003;50.320;8.054;2022-10-31T16:16:45;25.38;;;11.57;;
35907;SDS011;22003;50.320;8.054;2022-10-31T16:19:17;25.42;;;11.80;;
35907;SDS011;22003;50.320;8.054;2022-10-31T16:21:43;22.58;;;12.85;;
35907;SDS011;22003;50.320;8.054;2022-10-31T16:24:16;23.05;;;12.05;;
35907;SDS011;22003;50.320;8.054;2022-10-31T16:26:46;18.88;;;11.50;;
35907;SDS011;22003;50.320;8.054;2022-10-31T16:29:23;24.77;;;12.25;;
35907;SDS011;22003;50.320;8.054;2022-10-31T16:31:49;19.73;;;11.02;;
35907;SDS011;22003;50.320;8.054;2022-10-31T16:34:15;24.70;;;13.57;;
35907;SDS011;22003;50.320;8.054;2022-10-31T16:36:42;19.80;;;12.98;;
35907;SDS011;22003;50.320;8.054;2022-10-31T16:39:07;21.88;;;12.73;;
35907;SDS011;22003;50.320;8.054;2022-10-31T16:41:38;30.52;;;12.82;;
35907;SDS011;22003;50.320;8.054;2022-10-31T16:44:04;30.38;;;18.60;;
35907;SDS011;22003;50.320;8.054;2022-10-31T16:46:31;59.28;;;30.45;;
35907;SDS011;22003;50.320;8.054;2022-10-31T16:48:56;35.10;;;19.67;;
35907;SDS011;22003;50.320;8.054;2022-10-31T16:51:21;40.10;;;22.60;;
35907;SDS011;22003;50.320;8.054;2022-10-31T16:53:47;40.90;;;17.52;;
35907;SDS011;22003;50.320;8.054;2022-10-31T16:56:16;26.42;;;16.58;;
35907;SDS011;22003;50.320;8.054;2022-10-31T16:58:41;28.35;;;16.08;;
35907;SDS011;22003;50.320;8.054;2022-10-31T17:01:07;18.40;;;11.68;;
35907;SDS011;22003;50.320;8.054;2022-10-31T17:03:32;23.92;;;12.25;;
35907;SDS011;22003;50.320;8.054;2022-10-31T17:05:57;18.73;;;10.32;;
35907;SDS011;22003;50.320;8.054;2022-10-31T17:08:23;22.93;;;11.90;;
35907;SDS011;22003;50.320;8.054;2022-10-31T17:10:50;25.60;;;11.98;;
35907;SDS011;22003;50.320;8.054;2022-10-31T17:13:17;20.30;;;11.60;;
35907;SDS011;22003;50.320;8.054;2022-10-31T17:15:44;29.17;;;15.40;;
35907;SDS011;22003;50.320;8.054;2022-10-31T17:18:11;51.27;;;23.13;;
35907;SDS011;22003;50.320;8.054;2022-10-31T17:20:36;41.25;;;22.75;;
35907;SDS011;22003;50.320;8.054;2022-10-31T17:23:01;44.20;;;23.08;;
35907;SDS011;22003;50.320;8.054;2022-10-31T17:25:27;41.03;;;22.33;;
35907;SDS011;22003;50.320;8.054;2022-10-31T17:27:53;49.05;;;25.23;;
35907;SDS011;22003;50.320;8.054;2022-10-31T17:30:19;35.38;;;20.30;;
35907;SDS011;22003;50.320;8.054;2022-10-31T17:32:44;28.10;;;16.25;;
35907;SDS011;22003;50.320;8.054;2022-10-31T17:35:10;28.80;;;14.85;;
35907;SDS011;22003;50.320;8.054;2022-10-31T17:37:36;27.23;;;14.68;;
35907;SDS011;22003;50.320;8.054;2022-10-31T17:40:02;20.33;;;12.23;;
35907;SDS011;22003;50.320;8.054;2022-10-31T17:42:27;23.05;;;10.60;;
35907;SDS011;22003;50.320;8.054;2022-10-31T17:44:52;24.42;;;11.52;;
35907;SDS011;22003;50.320;8.054;2022-10-31T17:47:17;23.33;;;11.00;;
35907;SDS011;22003;50.320;8.054;2022-10-31T17:49:42;21.98;;;12.15;;
35907;SDS011;22003;50.320;8.054;2022-10-31T17:52:09;23.65;;;12.93;;
35907;SDS011;22003;50.320;8.054;2022-10-31T17:54:34;25.60;;;11.82;;
35907;SDS011;22003;50.320;8.054;2022-10-31T17:56:59;26.70;;;12.13;;
35907;SDS011;22003;50.320;8.054;2022-10-31T17:59:24;19.98;;;10.88;;
35907;SDS011;22003;50.320;8.054;2022-10-31T18:01:51;27.50;;;12.15;;
35907;SDS011;22003;50.320;8.054;2022-10-31T18:04:16;19.40;;;10.57;;
35907;SDS011;22003;50.320;8.054;2022-10-31T18:06:41;17.05;;;11.48;;
35907;SDS011;22003;50.320;8.054;2022-10-31T18:09:06;20.90;;;10.80;;
35907;SDS011;22003;50.320;8.054;2022-10-31T18:11:32;20.48;;;11.13;;
35907;SDS011;22003;50.320;8.054;2022-10-31T18:13:57;30.40;;;13.90;;
35907;SDS011;22003;50.320;8.054;2022-10-31T18:16:23;27.98;;;12.85;;
35907;SDS011;22003;50.320;8.054;2022-10-31T18:18:50;28.30;;;12.70;;
35907;SDS011;22003;50.320;8.054;2022-10-31T18:21:16;25.47;;;14.57;;
35907;SDS011;22003;50.320;8.054;2022-10-31T18:23:41;39.75;;;22.52;;
35907;SDS011;22003;50.320;8.054;2022-10-31T18:26:07;41.72;;;23.30;;
35907;SDS011;22003;50.320;8.054;2022-10-31T18:28:32;39.22;;;22.85;;
35907;SDS011;22003;50.320;8.054;2022-10-31T18:30:58;34.30;;;18.42;;
35907;SDS011;22003;50.320;8.054;2022-10-31T18:33:24;40.55;;;21.63;;
35907;SDS011;22003;50.320;8.054;2022-10-31T18:35:49;32.97;;;19.08;;
35907;SDS011;22003;50.320;8.054;2022-10-31T18:38:14;41.00;;;24.25;;
35907;SDS011;22003;50.320;8.054;2022-10-31T18:40:39;55.47;;;28.58;;
35907;SDS011;22003;50.320;8.054;2022-10-31T18:43:05;29.88;;;15.95;;
35907;SDS011;22003;50.320;8.054;2022-10-31T18:45:30;33.57;;;18.67;;
35907;SDS011;22003;50.320;8.054;2022-10-31T18:47:55;29.17;;;14.85;;
35907;SDS011;22003;50.320;8.054;2022-10-31T18:50:20;24.77;;;13.67;;
35907;SDS011;22003;50.320;8.054;2022-10-31T18:52:45;36.67;;;19.13;;
35907;SDS011;22003;50.320;8.054;2022-10-31T18:55:10;20.60;;;11.65;;
35907;SDS011;22003;50.320;8.054;2022-10-31T18:57:36;33.88;;;17.60;;
35907;SDS011;22003;50.320;8.054;2022-10-31T19:00:02;18.52;;;10.20;;
35907;SDS011;22003;50.320;8.054;2022-10-31T19:02:28;21.77;;;11.02;;
35907;SDS011;22003;50.320;8.054;2022-10-31T19:04:53;17.58;;;10.23;;
35907;SDS011;22003;50.320;8.054;2022-10-31T19:07:18;25.92;;;11.40;;
35907;SDS011;22003;50.320;8.054;2022-10-31T19:09:43;23.20;;;12.60;;
35907;SDS011;22003;50.320;8.054;2022-10-31T19:12:08;17.35;;;9.85;;
35907;SDS011;22003;50.320;8.054;2022-10-31T19:14:33;23.53;;;11.00;;
35907;SDS011;22003;50.320;8.054;2022-10-31T19:16:59;19.65;;;11.55;;
35907;SDS011;22003;50.320;8.054;2022-10-31T19:19:24;26.92;;;12.48;;
35907;SDS011;22003;50.320;8.054;2022-10-31T19:21:49;23.63;;;12.50;;
35907;SDS011;22003;50.320;8.054;2022-10-31T19:24:14;21.05;;;11.38;;
35907;SDS011;22003;50.320;8.054;2022-10-31T19:26:39;22.50;;;12.27;;
35907;SDS011;22003;50.320;8.054;2022-10-31T19:29:04;24.65;;;12.35;;
35907;SDS011;22003;50.320;8.054;2022-10-31T19:31:29;21.35;;;13.45;;
35907;SDS011;22003;50.320;8.054;2022-10-31T19:33:55;23.67;;;13.77;;
35907;SDS011;22003;50.320;8.054;2022-10-31T19:36:20;33.72;;;16.88;;
35907;SDS011;22003;50.320;8.054;2022-10-31T19:38:49;34.78;;;16.85;;
35907;SDS011;22003;50.320;8.054;2022-10-31T19:41:16;23.77;;;14.30;;
35907;SDS011;22003;50.320;8.054;2022-10-31T19:43:42;26.30;;;16.92;;
35907;SDS011;22003;50.320;8.054;2022-10-31T19:46:07;23.50;;;14.77;;
35907;SDS011;22003;50.320;8.054;2022-10-31T19:48:36;26.27;;;16.75;;
35907;SDS011;22003;50.320;8.054;2022-10-31T19:51:03;35.50;;;17.20;;
35907;SDS011;22003;50.320;8.054;2022-10-31T19:53:29;53.75;;;26.42;;
35907;SDS011;22003;50.320;8.054;2022-10-31T19:55:55;63.42;;;35.35;;
35907;SDS011;22003;50.320;8.054;2022-10-31T19:58:20;44.10;;;25.27;;
35907;SDS011;22003;50.320;8.054;2022-10-31T20:00:45;29.60;;;17.52;;
35907;SDS011;22003;50.320;8.054;2022-10-31T20:03:10;29.52;;;15.82;;
35907;SDS011;22003;50.320;8.054;2022-10-31T20:05:39;21.75;;;14.40;;
35907;SDS011;22003;50.320;8.054;2022-10-31T20:08:05;17.40;;;11.95;;
35907;SDS011;22003;50.320;8.054;2022-10-31T20:10:30;29.80;;;14.85;;
35907;SDS011;22003;50.320;8.054;2022-10-31T20:12:55;21.38;;;12.07;;
35907;SDS011;22003;50.320;8.054;2022-10-31T20:15:20;24.98;;;12.60;;
35907;SDS011;22003;50.320;8.054;2022-10-31T20:17:46;20.92;;;12.20;;
35907;SDS011;22003;50.320;8.054;2022-10-31T20:20:11;24.30;;;12.60;;
35907;SDS011;22003;50.320;8.054;2022-10-31T20:22:36;18.95;;;12.07;;
35907;SDS011;22003;50.320;8.054;2022-10-31T20:25:01;19.02;;;11.77;;
35907;SDS011;22003;50.320;8.054;2022-10-31T20:27:27;20.17;;;12.18;;
35907;SDS011;22003;50.320;8.054;2022-10-31T20:29:52;16.73;;;10.95;;
35907;SDS011;22003;50.320;8.054;2022-10-31T20:32:18;15.82;;;10.68;;
35907;SDS011;22003;50.320;8.054;2022-10-31T20:34:43;18.23;;;10.02;;
35907;SDS011;22003;50.320;8.054;2022-10-31T20:37:09;16.48;;;9.40;;
35907;SDS011;22003;50.320;8.054;2022-10-31T20:39:34;16.15;;;10.25;;
35907;SDS011;22003;50.320;8.054;2022-10-31T20:42:00;20.70;;;9.75;;
35907;SDS011;22003;50.320;8.054;2022-10-31T20:44:25;18.33;;;9.75;;
35907;SDS011;22003;50.320;8.054;2022-10-31T20:46:51;20.67;;;9.82;;
35907;SDS011;22003;50.320;8.054;2022-10-31T20:49:16;15.82;;;9.40;;
35907;SDS011;22003;50.320;8.054;2022-10-31T20:51:41;17.77;;;10.05;;
35907;SDS011;22003;50.320;8.054;2022-10-31T20:54:07;24.55;;;10.77;;
35907;SDS011;22003;50.320;8.054;2022-10-31T20:56:35;17.88;;;9.55;;
35907;SDS011;22003;50.320;8.054;2022-10-31T20:59:00;16.42;;;10.00;;
35907;SDS011;22003;50.320;8.054;2022-10-31T21:01:29;19.45;;;11.57;;